sensor_id;sensor_type;location;lat;lon;timestamp;P1;durP1;ratioP1;P2;durP2;ratioP2
44446;SDS011;30152;52.066;5.358;2022-12-18T08:18:27;42.72;;;17.30;;
44446;SDS011;30152;52.066;5.358;2022-12-18T08:20:54;38.67;;;15.93;;
44446;SDS011;30152;52.066;5.358;2022-12-18T08:23:20;36.22;;;15.93;;
44446;SDS011;30152;52.066;5.358;2022-12-18T08:25:46;35.95;;;15.68;;
44446;SDS011;30152;52.066;5.358;2022-12-18T08:28:11;61.70;;;23.30;;
44446;SDS011;30152;52.066;5.358;2022-12-18T08:30:37;52.35;;;20.40;;
44446;SDS011;30152;52.066;5.358;2022-12-18T08:33:03;63.25;;;22.83;;
44446;SDS011;30152;52.066;5.358;2022-12-18T08:35:29;60.50;;;23.77;;
44446;SDS011;30152;52.066;5.358;2022-12-18T08:37:55;70.72;;;28.02;;
44446;SDS011;30152;52.066;5.358;2022-12-18T08:40:21;76.60;;;34.90;;
44446;SDS011;30152;52.066;5.358;2022-12-18T08:42:47;63.15;;;28.83;;
44446;SDS011;30152;52.066;5.358;2022-12-18T08:45:31;36.03;;;16.95;;
44446;SDS011;30152;52.066;5.358;2022-12-18T08:47:58;38.30;;;17.65;;
44446;SDS011;30152;52.066;5.358;2022-12-18T08:50:24;35.15;;;15.25;;
44446;SDS011;30152;52.066;5.358;2022-12-18T08:52:49;37.83;;;15.75;;
44446;SDS011;30152;52.066;5.358;2022-12-18T08:55:15;38.63;;;14.65;;
44446;SDS011;30152;52.066;5.358;2022-12-18T08:57:41;38.60;;;16.05;;
44446;SDS011;30152;52.066;5.358;2022-12-18T09:00:07;39.20;;;16.50;;
44446;SDS011;30152;52.066;5.358;2022-12-18T09:02:33;51.78;;;22.30;;
44446;SDS011;30152;52.066;5.358;2022-12-18T09:04:59;58.67;;;26.05;;
44446;SDS011;30152;52.066;5.358;2022-12-18T09:07:25;33.78;;;15.35;;
44446;SDS011;30152;52.066;5.358;2022-12-18T09:09:51;35.45;;;15.68;;
44446;SDS011;30152;52.066;5.358;2022-12-18T09:12:17;33.63;;;14.32;;
44446;SDS011;30152;52.066;5.358;2022-12-18T09:14:42;34.03;;;15.52;;
44446;SDS011;30152;52.066;5.358;2022-12-18T09:17:08;32.88;;;14.57;;
44446;SDS011;30152;52.066;5.358;2022-12-18T09:19:34;30.20;;;15.60;;
44446;SDS011;30152;52.066;5.358;2022-12-18T09:21:59;36.38;;;15.40;;
44446;SDS011;30152;52.066;5.358;2022-12-18T09:24:25;31.30;;;15.23;;
44446;SDS011;30152;52.066;5.358;2022-12-18T09:26:53;37.13;;;16.88;;
44446;SDS011;30152;52.066;5.358;2022-12-18T09:29:22;35.25;;;15.52;;
44446;SDS011;30152;52.066;5.358;2022-12-18T09:31:47;30.40;;;15.50;;
44446;SDS011;30152;52.066;5.358;2022-12-18T09:34:14;31.63;;;14.55;;
44446;SDS011;30152;52.066;5.358;2022-12-18T09:36:40;28.95;;;14.32;;
44446;SDS011;30152;52.066;5.358;2022-12-18T09:39:05;29.35;;;14.48;;
44446;SDS011;30152;52.066;5.358;2022-12-18T09:47:03;32.38;;;14.23;;
44446;SDS011;30152;52.066;5.358;2022-12-18T09:49:34;28.65;;;13.35;;
44446;SDS011;30152;52.066;5.358;2022-12-18T09:52:05;30.00;;;13.20;;
44446;SDS011;30152;52.066;5.358;2022-12-18T09:54:40;30.83;;;12.60;;
44446;SDS011;30152;52.066;5.358;2022-12-18T09:57:10;28.52;;;12.90;;
44446;SDS011;30152;52.066;5.358;2022-12-18T09:59:40;32.13;;;14.85;;
44446;SDS011;30152;52.066;5.358;2022-12-18T10:02:13;28.60;;;12.32;;
44446;SDS011;30152;52.066;5.358;2022-12-18T10:04:44;27.35;;;12.73;;
44446;SDS011;30152;52.066;5.358;2022-12-18T10:07:25;32.95;;;14.10;;
44446;SDS011;30152;52.066;5.358;2022-12-18T10:10:07;27.92;;;12.93;;
44446;SDS011;30152;52.066;5.358;2022-12-18T10:12:44;26.17;;;12.43;;
44446;SDS011;30152;52.066;5.358;2022-12-18T10:20:49;22.45;;;11.90;;
44446;SDS011;30152;52.066;5.358;2022-12-18T10:26:08;27.73;;;11.30;;
44446;SDS011;30152;52.066;5.358;2022-12-18T10:28:36;25.40;;;12.15;;
44446;SDS011;30152;52.066;5.358;2022-12-18T10:31:07;30.10;;;12.88;;
44446;SDS011;30152;52.066;5.358;2022-12-18T10:33:39;30.27;;;12.70;;
44446;SDS011;30152;52.066;5.358;2022-12-18T10:36:06;28.20;;;12.90;;
44446;SDS011;30152;52.066;5.358;2022-12-18T10:38:32;28.25;;;12.13;;
44446;SDS011;30152;52.066;5.358;2022-12-18T10:41:31;22.88;;;10.82;;
44446;SDS011;30152;52.066;5.358;2022-12-18T10:46:49;31.27;;;12.35;;
44446;SDS011;30152;52.066;5.358;2022-12-18T10:49:49;24.83;;;11.60;;
44446;SDS011;30152;52.066;5.358;2022-12-18T10:52:23;26.40;;;12.23;;
44446;SDS011;30152;52.066;5.358;2022-12-18T10:55:01;27.20;;;11.98;;
44446;SDS011;30152;52.066;5.358;2022-12-18T10:57:29;26.15;;;12.27;;
44446;SDS011;30152;52.066;5.358;2022-12-18T11:02:53;24.70;;;12.45;;
44446;SDS011;30152;52.066;5.358;2022-12-18T11:05:23;25.15;;;12.10;;
44446;SDS011;30152;52.066;5.358;2022-12-18T11:07:52;24.67;;;11.57;;
44446;SDS011;30152;52.066;5.358;2022-12-18T11:10:20;24.85;;;11.85;;
44446;SDS011;30152;52.066;5.358;2022-12-18T11:12:47;25.65;;;11.70;;
44446;SDS011;30152;52.066;5.358;2022-12-18T11:15:16;25.02;;;11.48;;
44446;SDS011;30152;52.066;5.358;2022-12-18T11:17:54;25.17;;;11.20;;
44446;SDS011;30152;52.066;5.358;2022-12-18T11:20:23;22.98;;;10.48;;
44446;SDS011;30152;52.066;5.358;2022-12-18T11:22:58;26.55;;;11.70;;
44446;SDS011;30152;52.066;5.358;2022-12-18T11:25:26;20.63;;;9.95;;
44446;SDS011;30152;52.066;5.358;2022-12-18T11:27:56;23.95;;;11.45;;
44446;SDS011;30152;52.066;5.358;2022-12-18T11:30:25;26.73;;;12.82;;
44446;SDS011;30152;52.066;5.358;2022-12-18T11:33:11;28.92;;;13.32;;
44446;SDS011;30152;52.066;5.358;2022-12-18T11:38:23;24.38;;;11.93;;
44446;SDS011;30152;52.066;5.358;2022-12-18T11:43:51;28.92;;;11.75;;
44446;SDS011;30152;52.066;5.358;2022-12-18T11:46:24;26.75;;;11.52;;
44446;SDS011;30152;52.066;5.358;2022-12-18T11:49:06;28.90;;;12.80;;
44446;SDS011;30152;52.066;5.358;2022-12-18T11:51:38;28.88;;;12.95;;
44446;SDS011;30152;52.066;5.358;2022-12-18T11:54:14;29.33;;;11.27;;
44446;SDS011;30152;52.066;5.358;2022-12-18T11:56:45;26.85;;;11.85;;
44446;SDS011;30152;52.066;5.358;2022-12-18T12:01:51;26.13;;;11.07;;
44446;SDS011;30152;52.066;5.358;2022-12-18T12:10:36;20.38;;;10.75;;
44446;SDS011;30152;52.066;5.358;2022-12-18T12:13:28;27.15;;;12.00;;
44446;SDS011;30152;52.066;5.358;2022-12-18T12:16:08;26.58;;;11.70;;
44446;SDS011;30152;52.066;5.358;2022-12-18T12:21:39;28.85;;;11.50;;
44446;SDS011;30152;52.066;5.358;2022-12-18T12:27:05;22.23;;;10.73;;
44446;SDS011;30152;52.066;5.358;2022-12-18T12:30:00;27.73;;;12.02;;
44446;SDS011;30152;52.066;5.358;2022-12-18T12:40:31;22.73;;;10.80;;
44446;SDS011;30152;52.066;5.358;2022-12-18T12:45:50;26.20;;;11.82;;
44446;SDS011;30152;52.066;5.358;2022-12-18T12:48:37;26.88;;;11.77;;
44446;SDS011;30152;52.066;5.358;2022-12-18T12:51:34;20.85;;;10.65;;
44446;SDS011;30152;52.066;5.358;2022-12-18T12:54:02;25.33;;;11.55;;
44446;SDS011;30152;52.066;5.358;2022-12-18T12:59:52;25.33;;;12.57;;
44446;SDS011;30152;52.066;5.358;2022-12-18T13:05:30;28.50;;;11.75;;
44446;SDS011;30152;52.066;5.358;2022-12-18T13:08:06;22.20;;;11.05;;
44446;SDS011;30152;52.066;5.358;2022-12-18T13:13:02;26.80;;;11.82;;
44446;SDS011;30152;52.066;5.358;2022-12-18T13:20:34;30.30;;;12.10;;
44446;SDS011;30152;52.066;5.358;2022-12-18T13:31:12;26.50;;;12.45;;
44446;SDS011;30152;52.066;5.358;2022-12-18T13:34:11;32.63;;;13.02;;
44446;SDS011;30152;52.066;5.358;2022-12-18T13:36:41;28.05;;;13.02;;
44446;SDS011;30152;52.066;5.358;2022-12-18T13:41:38;30.10;;;13.27;;
44446;SDS011;30152;52.066;5.358;2022-12-18T13:46:51;27.83;;;13.25;;
44446;SDS011;30152;52.066;5.358;2022-12-18T13:49:37;33.78;;;13.85;;
44446;SDS011;30152;52.066;5.358;2022-12-18T13:52:15;29.08;;;12.57;;
44446;SDS011;30152;52.066;5.358;2022-12-18T13:54:43;30.02;;;13.25;;
44446;SDS011;30152;52.066;5.358;2022-12-18T14:02:52;30.20;;;14.27;;
44446;SDS011;30152;52.066;5.358;2022-12-18T14:07:51;21.92;;;9.27;;
44446;SDS011;30152;52.066;5.358;2022-12-18T14:10:17;30.98;;;14.05;;
44446;SDS011;30152;52.066;5.358;2022-12-18T14:12:47;29.77;;;13.05;;
44446;SDS011;30152;52.066;5.358;2022-12-18T14:17:52;26.60;;;13.32;;
44446;SDS011;30152;52.066;5.358;2022-12-18T14:20:20;26.67;;;11.82;;
44446;SDS011;30152;52.066;5.358;2022-12-18T14:22:48;30.02;;;12.63;;
44446;SDS011;30152;52.066;5.358;2022-12-18T14:25:18;27.42;;;12.77;;
44446;SDS011;30152;52.066;5.358;2022-12-18T14:27:46;27.67;;;13.35;;
44446;SDS011;30152;52.066;5.358;2022-12-18T14:32:59;32.10;;;14.70;;
44446;SDS011;30152;52.066;5.358;2022-12-18T14:35:38;30.63;;;13.85;;
44446;SDS011;30152;52.066;5.358;2022-12-18T14:38:18;28.80;;;13.13;;
44446;SDS011;30152;52.066;5.358;2022-12-18T14:43:28;31.33;;;13.05;;
44446;SDS011;30152;52.066;5.358;2022-12-18T14:45:56;28.92;;;12.10;;
44446;SDS011;30152;52.066;5.358;2022-12-18T14:51:06;31.55;;;13.30;;
44446;SDS011;30152;52.066;5.358;2022-12-18T14:53:39;30.63;;;14.05;;
44446;SDS011;30152;52.066;5.358;2022-12-18T14:56:35;29.50;;;12.95;;
44446;SDS011;30152;52.066;5.358;2022-12-18T14:59:13;29.50;;;13.75;;
44446;SDS011;30152;52.066;5.358;2022-12-18T15:04:32;26.58;;;12.73;;
44446;SDS011;30152;52.066;5.358;2022-12-18T15:07:04;29.83;;;13.55;;
44446;SDS011;30152;52.066;5.358;2022-12-18T15:09:29;36.10;;;14.52;;
44446;SDS011;30152;52.066;5.358;2022-12-18T15:11:56;28.58;;;13.77;;
44446;SDS011;30152;52.066;5.358;2022-12-18T15:14:24;33.47;;;14.63;;
44446;SDS011;30152;52.066;5.358;2022-12-18T15:17:00;30.00;;;14.43;;
44446;SDS011;30152;52.066;5.358;2022-12-18T15:19:33;29.90;;;12.73;;
44446;SDS011;30152;52.066;5.358;2022-12-18T15:22:02;29.05;;;13.35;;
44446;SDS011;30152;52.066;5.358;2022-12-18T15:24:29;31.23;;;14.60;;
44446;SDS011;30152;52.066;5.358;2022-12-18T15:26:57;27.50;;;13.70;;
44446;SDS011;30152;52.066;5.358;2022-12-18T15:29:23;31.65;;;14.85;;
44446;SDS011;30152;52.066;5.358;2022-12-18T15:31:58;27.40;;;13.35;;
44446;SDS011;30152;52.066;5.358;2022-12-18T15:34:25;32.85;;;14.50;;
44446;SDS011;30152;52.066;5.358;2022-12-18T15:36:51;29.83;;;13.95;;
44446;SDS011;30152;52.066;5.358;2022-12-18T15:39:17;34.20;;;14.00;;
44446;SDS011;30152;52.066;5.358;2022-12-18T15:41:43;27.58;;;14.13;;
44446;SDS011;30152;52.066;5.358;2022-12-18T15:44:29;31.40;;;15.35;;
44446;SDS011;30152;52.066;5.358;2022-12-18T15:46:55;34.35;;;14.73;;
44446;SDS011;30152;52.066;5.358;2022-12-18T15:49:21;30.13;;;14.25;;
44446;SDS011;30152;52.066;5.358;2022-12-18T15:51:49;32.83;;;14.88;;
44446;SDS011;30152;52.066;5.358;2022-12-18T15:54:18;32.85;;;14.55;;
44446;SDS011;30152;52.066;5.358;2022-12-18T15:57:04;31.92;;;14.52;;
44446;SDS011;30152;52.066;5.358;2022-12-18T16:02:16;33.92;;;14.60;;
44446;SDS011;30152;52.066;5.358;2022-12-18T16:04:43;37.38;;;15.77;;
44446;SDS011;30152;52.066;5.358;2022-12-18T16:07:10;31.10;;;14.23;;
44446;SDS011;30152;52.066;5.358;2022-12-18T16:09:36;41.75;;;16.25;;
44446;SDS011;30152;52.066;5.358;2022-12-18T16:12:02;34.15;;;15.00;;
44446;SDS011;30152;52.066;5.358;2022-12-18T16:14:28;37.40;;;15.98;;
44446;SDS011;30152;52.066;5.358;2022-12-18T16:16:56;35.47;;;16.48;;
44446;SDS011;30152;52.066;5.358;2022-12-18T16:19:23;35.22;;;15.95;;
44446;SDS011;30152;52.066;5.358;2022-12-18T16:21:50;34.95;;;15.80;;
44446;SDS011;30152;52.066;5.358;2022-12-18T16:24:20;36.35;;;16.38;;
44446;SDS011;30152;52.066;5.358;2022-12-18T16:26:47;30.90;;;15.43;;
44446;SDS011;30152;52.066;5.358;2022-12-18T16:29:13;33.58;;;15.07;;
44446;SDS011;30152;52.066;5.358;2022-12-18T16:31:39;38.35;;;16.92;;
44446;SDS011;30152;52.066;5.358;2022-12-18T16:34:21;34.97;;;15.02;;
44446;SDS011;30152;52.066;5.358;2022-12-18T16:36:49;28.42;;;11.30;;
44446;SDS011;30152;52.066;5.358;2022-12-18T16:39:15;35.17;;;16.00;;
44446;SDS011;30152;52.066;5.358;2022-12-18T16:41:41;34.88;;;16.35;;
44446;SDS011;30152;52.066;5.358;2022-12-18T16:44:07;30.55;;;14.60;;
44446;SDS011;30152;52.066;5.358;2022-12-18T16:46:33;36.83;;;16.70;;
44446;SDS011;30152;52.066;5.358;2022-12-18T16:48:59;35.38;;;15.40;;
44446;SDS011;30152;52.066;5.358;2022-12-18T16:51:28;35.22;;;16.30;;
44446;SDS011;30152;52.066;5.358;2022-12-18T16:53:54;35.17;;;17.02;;
44446;SDS011;30152;52.066;5.358;2022-12-18T16:56:20;38.13;;;16.42;;
44446;SDS011;30152;52.066;5.358;2022-12-18T16:58:52;32.95;;;15.80;;
44446;SDS011;30152;52.066;5.358;2022-12-18T17:01:19;40.03;;;17.40;;
44446;SDS011;30152;52.066;5.358;2022-12-18T17:06:18;37.35;;;17.67;;
44446;SDS011;30152;52.066;5.358;2022-12-18T17:08:44;34.92;;;16.50;;
44446;SDS011;30152;52.066;5.358;2022-12-18T17:11:10;35.78;;;16.83;;
44446;SDS011;30152;52.066;5.358;2022-12-18T17:13:36;39.28;;;17.05;;
44446;SDS011;30152;52.066;5.358;2022-12-18T17:16:03;42.90;;;17.63;;
44446;SDS011;30152;52.066;5.358;2022-12-18T17:18:30;38.47;;;17.35;;
44446;SDS011;30152;52.066;5.358;2022-12-18T17:21:04;35.35;;;16.38;;
44446;SDS011;30152;52.066;5.358;2022-12-18T17:23:31;35.78;;;17.40;;
44446;SDS011;30152;52.066;5.358;2022-12-18T17:25:57;41.13;;;17.35;;
44446;SDS011;30152;52.066;5.358;2022-12-18T17:28:25;37.05;;;18.23;;
44446;SDS011;30152;52.066;5.358;2022-12-18T17:30:52;43.45;;;17.33;;
44446;SDS011;30152;52.066;5.358;2022-12-18T17:33:18;37.15;;;16.67;;
44446;SDS011;30152;52.066;5.358;2022-12-18T17:35:44;39.40;;;17.20;;
44446;SDS011;30152;52.066;5.358;2022-12-18T17:38:10;40.42;;;18.23;;
44446;SDS011;30152;52.066;5.358;2022-12-18T17:40:36;36.20;;;17.05;;
44446;SDS011;30152;52.066;5.358;2022-12-18T17:43:02;38.10;;;18.52;;
44446;SDS011;30152;52.066;5.358;2022-12-18T17:45:28;45.50;;;18.90;;
44446;SDS011;30152;52.066;5.358;2022-12-18T17:47:53;41.70;;;18.40;;
44446;SDS011;30152;52.066;5.358;2022-12-18T17:50:19;38.10;;;17.27;;
44446;SDS011;30152;52.066;5.358;2022-12-18T17:52:46;36.95;;;16.77;;
44446;SDS011;30152;52.066;5.358;2022-12-18T17:55:11;41.95;;;18.27;;
44446;SDS011;30152;52.066;5.358;2022-12-18T17:57:38;39.38;;;17.75;;
44446;SDS011;30152;52.066;5.358;2022-12-18T18:00:04;41.72;;;18.75;;
44446;SDS011;30152;52.066;5.358;2022-12-18T18:02:30;36.15;;;17.23;;
44446;SDS011;30152;52.066;5.358;2022-12-18T18:04:56;34.88;;;16.38;;
44446;SDS011;30152;52.066;5.358;2022-12-18T18:07:22;38.75;;;16.17;;
44446;SDS011;30152;52.066;5.358;2022-12-18T18:09:48;36.42;;;16.85;;
44446;SDS011;30152;52.066;5.358;2022-12-18T18:12:13;37.88;;;17.83;;
44446;SDS011;30152;52.066;5.358;2022-12-18T18:14:58;33.75;;;16.20;;
44446;SDS011;30152;52.066;5.358;2022-12-18T18:17:24;42.20;;;17.40;;
44446;SDS011;30152;52.066;5.358;2022-12-18T18:19:50;44.38;;;17.70;;
44446;SDS011;30152;52.066;5.358;2022-12-18T18:22:15;38.10;;;17.50;;
44446;SDS011;30152;52.066;5.358;2022-12-18T18:24:42;38.63;;;18.73;;
44446;SDS011;30152;52.066;5.358;2022-12-18T18:27:08;38.45;;;17.75;;
44446;SDS011;30152;52.066;5.358;2022-12-18T18:29:34;38.83;;;17.60;;
44446;SDS011;30152;52.066;5.358;2022-12-18T18:32:00;42.75;;;18.38;;
44446;SDS011;30152;52.066;5.358;2022-12-18T18:34:27;39.33;;;17.63;;
44446;SDS011;30152;52.066;5.358;2022-12-18T18:36:54;36.33;;;17.92;;
44446;SDS011;30152;52.066;5.358;2022-12-18T18:39:24;49.80;;;19.90;;
44446;SDS011;30152;52.066;5.358;2022-12-18T18:41:50;39.38;;;18.50;;
44446;SDS011;30152;52.066;5.358;2022-12-18T18:44:16;45.40;;;18.90;;
44446;SDS011;30152;52.066;5.358;2022-12-18T18:46:44;43.13;;;17.70;;
44446;SDS011;30152;52.066;5.358;2022-12-18T18:49:10;47.53;;;17.58;;
44446;SDS011;30152;52.066;5.358;2022-12-18T18:51:37;40.55;;;18.17;;
44446;SDS011;30152;52.066;5.358;2022-12-18T18:54:03;38.45;;;18.15;;
44446;SDS011;30152;52.066;5.358;2022-12-18T18:56:29;34.20;;;17.15;;
44446;SDS011;30152;52.066;5.358;2022-12-18T18:58:56;43.33;;;17.77;;
44446;SDS011;30152;52.066;5.358;2022-12-18T19:01:22;38.17;;;18.45;;
44446;SDS011;30152;52.066;5.358;2022-12-18T19:03:49;40.28;;;18.45;;
44446;SDS011;30152;52.066;5.358;2022-12-18T19:06:16;37.40;;;16.83;;
44446;SDS011;30152;52.066;5.358;2022-12-18T19:08:44;37.28;;;18.92;;
44446;SDS011;30152;52.066;5.358;2022-12-18T19:11:13;41.42;;;17.38;;
44446;SDS011;30152;52.066;5.358;2022-12-18T19:13:58;41.60;;;18.38;;
44446;SDS011;30152;52.066;5.358;2022-12-18T19:16:24;40.20;;;18.25;;
44446;SDS011;30152;52.066;5.358;2022-12-18T19:18:51;36.90;;;17.23;;
44446;SDS011;30152;52.066;5.358;2022-12-18T19:21:18;38.95;;;18.02;;
44446;SDS011;30152;52.066;5.358;2022-12-18T19:23:44;42.75;;;19.02;;
44446;SDS011;30152;52.066;5.358;2022-12-18T19:26:11;37.47;;;18.42;;
44446;SDS011;30152;52.066;5.358;2022-12-18T19:28:37;39.00;;;18.13;;
44446;SDS011;30152;52.066;5.358;2022-12-18T19:31:05;36.10;;;16.75;;
44446;SDS011;30152;52.066;5.358;2022-12-18T19:33:32;39.47;;;17.83;;
44446;SDS011;30152;52.066;5.358;2022-12-18T19:35:59;45.03;;;19.23;;
44446;SDS011;30152;52.066;5.358;2022-12-18T19:38:24;37.63;;;17.73;;
44446;SDS011;30152;52.066;5.358;2022-12-18T19:40:50;38.88;;;17.40;;
44446;SDS011;30152;52.066;5.358;2022-12-18T19:43:16;39.53;;;17.77;;
44446;SDS011;30152;52.066;5.358;2022-12-18T19:45:42;36.33;;;16.85;;
44446;SDS011;30152;52.066;5.358;2022-12-18T19:48:08;36.35;;;16.05;;
44446;SDS011;30152;52.066;5.358;2022-12-18T19:50:38;40.47;;;19.17;;
44446;SDS011;30152;52.066;5.358;2022-12-18T19:53:05;40.45;;;19.05;;
44446;SDS011;30152;52.066;5.358;2022-12-18T19:55:31;44.38;;;18.35;;
44446;SDS011;30152;52.066;5.358;2022-12-18T19:57:56;39.03;;;19.83;;
44446;SDS011;30152;52.066;5.358;2022-12-18T20:00:22;47.90;;;19.90;;
44446;SDS011;30152;52.066;5.358;2022-12-18T20:02:48;46.10;;;21.15;;
44446;SDS011;30152;52.066;5.358;2022-12-18T20:05:14;46.42;;;20.85;;
44446;SDS011;30152;52.066;5.358;2022-12-18T20:07:40;54.50;;;21.80;;
44446;SDS011;30152;52.066;5.358;2022-12-18T20:10:06;40.20;;;20.48;;
44446;SDS011;30152;52.066;5.358;2022-12-18T20:12:35;47.38;;;20.88;;
44446;SDS011;30152;52.066;5.358;2022-12-18T20:15:01;41.70;;;17.85;;
44446;SDS011;30152;52.066;5.358;2022-12-18T20:17:27;49.35;;;20.55;;
44446;SDS011;30152;52.066;5.358;2022-12-18T20:19:52;48.17;;;22.45;;
44446;SDS011;30152;52.066;5.358;2022-12-18T20:22:18;49.83;;;21.90;;
44446;SDS011;30152;52.066;5.358;2022-12-18T20:24:44;39.70;;;16.30;;
44446;SDS011;30152;52.066;5.358;2022-12-18T20:27:09;44.80;;;20.98;;
44446;SDS011;30152;52.066;5.358;2022-12-18T20:29:35;48.55;;;21.88;;
44446;SDS011;30152;52.066;5.358;2022-12-18T20:32:00;50.38;;;22.30;;
44446;SDS011;30152;52.066;5.358;2022-12-18T20:34:26;45.97;;;21.65;;
44446;SDS011;30152;52.066;5.358;2022-12-18T20:36:52;48.47;;;21.67;;
44446;SDS011;30152;52.066;5.358;2022-12-18T20:39:18;48.38;;;22.83;;
44446;SDS011;30152;52.066;5.358;2022-12-18T20:41:44;48.40;;;22.63;;
44446;SDS011;30152;52.066;5.358;2022-12-18T20:44:11;54.45;;;22.85;;
44446;SDS011;30152;52.066;5.358;2022-12-18T20:46:37;49.75;;;24.00;;
44446;SDS011;30152;52.066;5.358;2022-12-18T20:49:03;51.25;;;23.17;;
44446;SDS011;30152;52.066;5.358;2022-12-18T20:51:29;49.80;;;23.48;;
44446;SDS011;30152;52.066;5.358;2022-12-18T20:53:55;54.28;;;24.88;;
44446;SDS011;30152;52.066;5.358;2022-12-18T20:56:23;56.35;;;24.60;;
44446;SDS011;30152;52.066;5.358;2022-12-18T20:58:50;54.50;;;25.67;;
44446;SDS011;30152;52.066;5.358;2022-12-18T21:01:19;56.33;;;25.25;;
44446;SDS011;30152;52.066;5.358;2022-12-18T21:03:46;50.30;;;22.80;;
44446;SDS011;30152;52.066;5.358;2022-12-18T21:06:12;56.53;;;23.92;;
44446;SDS011;30152;52.066;5.358;2022-12-18T21:08:39;50.45;;;23.48;;
44446;SDS011;30152;52.066;5.358;2022-12-18T21:14:14;52.30;;;24.48;;
44446;SDS011;30152;52.066;5.358;2022-12-18T21:16:49;50.47;;;22.92;;
44446;SDS011;30152;52.066;5.358;2022-12-18T21:19:19;52.17;;;24.02;;
44446;SDS011;30152;52.066;5.358;2022-12-18T21:21:49;51.85;;;23.17;;
44446;SDS011;30152;52.066;5.358;2022-12-18T21:24:16;52.88;;;22.83;;
44446;SDS011;30152;52.066;5.358;2022-12-18T21:26:42;52.80;;;21.70;;
44446;SDS011;30152;52.066;5.358;2022-12-18T21:29:10;57.42;;;25.58;;
44446;SDS011;30152;52.066;5.358;2022-12-18T21:31:38;53.38;;;23.73;;
44446;SDS011;30152;52.066;5.358;2022-12-18T21:34:04;67.20;;;28.00;;
44446;SDS011;30152;52.066;5.358;2022-12-18T21:36:31;57.63;;;26.05;;
44446;SDS011;30152;52.066;5.358;2022-12-18T21:38:57;55.17;;;25.92;;
44446;SDS011;30152;52.066;5.358;2022-12-18T21:41:24;55.67;;;25.00;;
44446;SDS011;30152;52.066;5.358;2022-12-18T21:44:15;48.40;;;24.80;;
44446;SDS011;30152;52.066;5.358;2022-12-18T21:46:42;59.63;;;26.98;;
44446;SDS011;30152;52.066;5.358;2022-12-18T21:49:10;54.45;;;25.70;;
44446;SDS011;30152;52.066;5.358;2022-12-18T21:51:38;54.88;;;25.48;;
44446;SDS011;30152;52.066;5.358;2022-12-18T21:54:04;62.40;;;25.83;;
44446;SDS011;30152;52.066;5.358;2022-12-18T21:59:07;55.33;;;24.95;;
44446;SDS011;30152;52.066;5.358;2022-12-18T22:01:33;57.97;;;26.70;;
44446;SDS011;30152;52.066;5.358;2022-12-18T22:03:59;58.47;;;25.85;;
44446;SDS011;30152;52.066;5.358;2022-12-18T22:06:25;55.00;;;25.70;;
44446;SDS011;30152;52.066;5.358;2022-12-18T22:08:50;54.80;;;27.00;;
44446;SDS011;30152;52.066;5.358;2022-12-18T22:11:16;58.50;;;25.65;;
44446;SDS011;30152;52.066;5.358;2022-12-18T22:13:41;57.17;;;26.63;;
44446;SDS011;30152;52.066;5.358;2022-12-18T22:16:07;56.95;;;24.38;;
44446;SDS011;30152;52.066;5.358;2022-12-18T22:18:33;57.92;;;25.27;;
44446;SDS011;30152;52.066;5.358;2022-12-18T22:20:59;55.63;;;25.92;;
